Terminal Aerodrome Forecast
Issued by NWS Austin/San Antonio, TX

Home | Current Version | Previous Version | Text Only | Print | Product List | Glossary On
Versions: 1 2 3 4 5 6 7 8 9 10 11 12 13 14 15 16 17 18 19 20 21 22 23 24 25 26 27
000
FTUS44 KEWX 031700
TAFAUS
TAF
KAUS 031725Z 0318/0424 VRB02KT 1/4SM FG VV002
     FM032000 18007KT 1SM BR OVC004
     FM032200 18010KT 3SM BR OVC009
     FM040300 16007KT 1/2SM FG OVC003 PROB30 0414/0418 3SM -RA
     FM042000 35010KT 3SM BR OVC013 PROB30 0420/0423 3SM SHRA
     FM042300 36022G32KT 5SM -RA BR OVC016=

USA.gov is the U.S. government's official web portal to all federal, state and local government web resources and services.